Time;durP1;ratioP1;P1;durP2;ratioP2;P2;SDS_P1;SDS_P2;PMS_P1;PMS_P2;Temp;Humidity;BMP_temperature;BMP_pressure;BME280_temperature;BME280_humidity;BME280_pressure;Samples;Min_cycle;Max_cycle;Signal;HPM_P1;HPM_P2
2023/11/23 00:00:30;;;;;;;0.93;0.93;;;1.80;99.90;;;;;;4426714;32;20196;-58
2023/11/23 00:02:56;;;;;;;1.12;0.75;;;1.90;99.90;;;;;;4428872;32;20081;-60
2023/11/23 00:05:21;;;;;;;0.47;0.47;;;1.90;99.90;;;;;;4432337;32;20169;-60
2023/11/23 00:07:47;;;;;;;0.30;0.30;;;1.90;99.90;;;;;;4427971;32;20465;-60
2023/11/23 00:10:13;;;;;;;0.40;0.40;;;1.90;99.90;;;;;;4428025;32;20097;-56
2023/11/23 00:12:41;;;;;;;0.60;0.60;;;2.00;99.90;;;;;;4428818;32;20065;-60
2023/11/23 00:15:07;;;;;;;1.95;0.90;;;2.00;99.90;;;;;;4429389;32;20062;-60
2023/11/23 00:17:32;;;;;;;0.40;0.40;;;2.00;99.90;;;;;;4427167;32;20544;-59
2023/11/23 00:19:58;;;;;;;0.40;0.40;;;2.10;99.90;;;;;;4429360;32;20061;-59
2023/11/23 00:22:25;;;;;;;0.57;0.57;;;2.10;99.90;;;;;;4414769;32;20512;-60
2023/11/23 00:24:51;;;;;;;0.62;0.62;;;2.10;99.90;;;;;;4414119;32;20064;-60
2023/11/23 00:27:16;;;;;;;0.45;0.45;;;2.10;99.90;;;;;;4430905;32;20154;-61
2023/11/23 00:29:42;;;;;;;0.40;0.40;;;2.00;99.90;;;;;;4430263;32;20094;-58
2023/11/23 00:32:07;;;;;;;0.40;0.40;;;2.00;99.90;;;;;;4408654;32;20133;-59
2023/11/23 00:34:33;;;;;;;0.40;0.40;;;2.00;99.90;;;;;;4429079;32;20081;-60
2023/11/23 00:36:59;;;;;;;0.50;0.50;;;2.10;99.90;;;;;;4426211;32;20255;-58
2023/11/23 00:39:24;;;;;;;4.95;2.15;;;2.10;99.90;;;;;;4427305;32;20097;-58
2023/11/23 00:41:51;;;;;;;0.70;0.70;;;2.10;99.90;;;;;;4426996;32;20077;-57
2023/11/23 00:44:18;;;;;;;0.45;0.45;;;2.10;99.90;;;;;;4414440;32;20147;-57
2023/11/23 00:46:43;;;;;;;0.40;0.40;;;2.00;99.90;;;;;;4431564;32;20522;-55
2023/11/23 00:49:09;;;;;;;0.57;0.57;;;2.00;99.90;;;;;;4414905;32;20073;-57
2023/11/23 00:51:36;;;;;;;0.82;0.82;;;2.10;99.90;;;;;;4428022;32;20081;-60
2023/11/23 00:54:04;;;;;;;0.30;0.30;;;2.20;99.90;;;;;;4429719;32;20474;-59
2023/11/23 00:56:29;;;;;;;1.02;0.95;;;2.30;99.90;;;;;;4413447;32;20093;-58
2023/11/23 00:58:55;;;;;;;4.90;1.73;;;2.30;99.90;;;;;;4428548;32;20537;-59
2023/11/23 01:01:20;;;;;;;0.40;0.40;;;2.40;99.90;;;;;;4429414;32;20078;-60
2023/11/23 01:03:46;;;;;;;0.52;0.52;;;2.40;99.90;;;;;;4426396;32;20632;-60
2023/11/23 01:06:11;;;;;;;4.03;1.40;;;2.50;99.90;;;;;;4429382;32;20131;-57
2023/11/23 01:08:37;;;;;;;0.35;0.35;;;2.50;99.90;;;;;;4414591;32;20157;-59
2023/11/23 01:11:02;;;;;;;0.75;0.75;;;2.50;99.90;;;;;;4429108;32;20123;-59
2023/11/23 01:13:29;;;;;;;0.40;0.40;;;2.50;99.90;;;;;;4424910;32;20069;-60
2023/11/23 01:15:55;;;;;;;0.35;0.35;;;2.50;99.90;;;;;;4414154;32;20092;-60
2023/11/23 01:18:22;;;;;;;0.40;0.40;;;2.60;99.90;;;;;;4421023;32;20081;-59
2023/11/23 01:20:48;;;;;;;0.60;0.60;;;2.70;99.90;;;;;;4411884;32;20579;-59
2023/11/23 01:23:13;;;;;;;0.40;0.40;;;2.70;99.90;;;;;;4431631;32;20138;-60
2023/11/23 01:25:39;;;;;;;0.60;0.60;;;2.60;99.90;;;;;;4423613;32;20078;-58
2023/11/23 01:28:04;;;;;;;0.40;0.40;;;2.70;99.90;;;;;;4431466;32;20073;-58
2023/11/23 01:30:30;;;;;;;0.30;0.30;;;2.70;99.90;;;;;;4417291;32;20101;-59
2023/11/23 01:32:56;;;;;;;0.40;0.40;;;2.80;99.90;;;;;;4428533;32;20065;-60
2023/11/23 01:35:21;;;;;;;0.47;0.47;;;2.80;99.90;;;;;;4432105;32;20089;-60
2023/11/23 01:37:47;;;;;;;0.88;0.88;;;2.90;99.90;;;;;;4428523;32;20142;-61
2023/11/23 01:40:13;;;;;;;0.47;0.47;;;2.90;99.90;;;;;;4428850;32;20554;-61
2023/11/23 01:42:38;;;;;;;2.83;1.05;;;2.90;99.90;;;;;;4428345;32;20077;-60
2023/11/23 01:45:05;;;;;;;0.30;0.30;;;2.90;99.90;;;;;;4430013;32;20098;-59
2023/11/23 01:47:32;;;;;;;0.40;0.40;;;3.00;99.90;;;;;;4424922;32;20517;-59
2023/11/23 01:50:02;;;;;;;0.40;0.40;;;3.00;99.90;;;;;;4428950;32;20073;-59
2023/11/23 01:52:28;;;;;;;0.32;0.32;;;3.00;99.90;;;;;;4430594;32;20069;-58
2023/11/23 01:54:53;;;;;;;0.30;0.30;;;3.10;99.90;;;;;;4427454;32;20084;-59
2023/11/23 01:57:19;;;;;;;0.45;0.45;;;3.10;99.90;;;;;;4430943;32;20086;-59
2023/11/23 01:59:45;;;;;;;0.30;0.30;;;3.20;99.90;;;;;;4431510;32;20089;-59
2023/11/23 02:02:10;;;;;;;0.50;0.50;;;3.10;99.90;;;;;;4429356;32;20116;-61
2023/11/23 02:04:36;;;;;;;0.40;0.40;;;3.10;99.90;;;;;;4429016;32;20076;-61
2023/11/23 02:07:02;;;;;;;0.50;0.50;;;3.20;99.90;;;;;;4429208;32;20054;-59
2023/11/23 02:09:28;;;;;;;0.85;0.65;;;3.20;99.90;;;;;;4436907;32;20074;-61
2023/11/23 02:11:54;;;;;;;0.45;0.45;;;3.30;99.90;;;;;;4415431;32;20652;-61
2023/11/23 02:14:20;;;;;;;0.30;0.30;;;3.30;99.90;;;;;;4428348;32;20096;-61
2023/11/23 02:16:46;;;;;;;0.60;0.60;;;3.30;99.90;;;;;;4428505;32;20077;-59
2023/11/23 02:19:11;;;;;;;0.77;0.65;;;3.20;99.90;;;;;;4430108;32;20480;-59
2023/11/23 02:21:37;;;;;;;0.50;0.50;;;3.30;99.90;;;;;;4430975;32;20073;-61
2023/11/23 02:24:11;;;;;;;0.30;0.30;;;3.30;99.90;;;;;;4429115;32;20131;-57
2023/11/23 02:26:37;;;;;;;0.30;0.30;;;3.30;99.90;;;;;;4430144;32;20136;-59
2023/11/23 02:29:04;;;;;;;0.40;0.40;;;3.30;99.90;;;;;;4430296;32;20560;-58
2023/11/23 02:31:32;;;;;;;0.40;0.40;;;3.30;99.90;;;;;;4428431;32;20620;-58
2023/11/23 02:34:00;;;;;;;0.40;0.40;;;3.30;99.90;;;;;;4404010;32;20430;-60
2023/11/23 02:36:25;;;;;;;0.30;0.30;;;3.40;99.90;;;;;;4414641;32;20124;-58
2023/11/23 02:38:51;;;;;;;0.60;0.52;;;3.40;99.90;;;;;;4411580;32;20417;-60
2023/11/23 02:41:16;;;;;;;0.45;0.45;;;3.40;99.90;;;;;;4427670;32;20663;-59
2023/11/23 02:43:42;;;;;;;0.30;0.30;;;3.50;99.90;;;;;;4426846;32;20091;-59
2023/11/23 02:46:08;;;;;;;0.40;0.40;;;3.50;99.90;;;;;;4428478;32;20128;-58
2023/11/23 02:48:33;;;;;;;0.40;0.40;;;3.50;99.90;;;;;;4428948;32;20532;-58
2023/11/23 02:50:59;;;;;;;0.30;0.30;;;3.60;99.90;;;;;;4428263;32;20085;-59
2023/11/23 02:53:30;;;;;;;0.52;0.52;;;3.60;99.90;;;;;;4427676;32;21172;-58
2023/11/23 02:55:55;;;;;;;0.40;0.40;;;3.70;99.90;;;;;;4427462;32;20133;-60
2023/11/23 02:58:21;;;;;;;0.30;0.30;;;3.70;99.90;;;;;;4427169;32;21315;-60
2023/11/23 03:00:48;;;;;;;0.50;0.50;;;3.70;99.90;;;;;;4429378;32;20062;-59
2023/11/23 03:03:14;;;;;;;1.35;0.95;;;3.80;99.90;;;;;;4429708;32;20061;-58
2023/11/23 03:05:39;;;;;;;0.40;0.40;;;3.80;99.90;;;;;;4428044;32;20525;-59
2023/11/23 03:08:06;;;;;;;0.40;0.40;;;3.80;99.90;;;;;;4430209;32;20066;-58
2023/11/23 03:10:33;;;;;;;0.43;0.43;;;3.90;99.90;;;;;;4427119;32;20086;-58
2023/11/23 03:13:00;;;;;;;0.30;0.30;;;3.90;99.90;;;;;;4414645;32;21145;-59
2023/11/23 03:15:26;;;;;;;0.52;0.52;;;3.90;99.90;;;;;;4429236;32;20116;-58
2023/11/23 03:17:51;;;;;;;0.30;0.30;;;4.00;99.90;;;;;;4429024;32;20111;-58
2023/11/23 03:20:17;;;;;;;0.40;0.40;;;4.00;99.90;;;;;;4429714;32;20085;-59
2023/11/23 03:22:42;;;;;;;0.50;0.50;;;4.00;99.90;;;;;;4431878;32;20093;-58
2023/11/23 03:25:09;;;;;;;0.50;0.50;;;4.10;99.90;;;;;;4428593;32;20084;-61
2023/11/23 03:27:36;;;;;;;0.47;0.47;;;4.10;99.90;;;;;;4417323;32;20069;-58
2023/11/23 03:30:02;;;;;;;0.40;0.40;;;4.20;99.90;;;;;;4429565;32;20081;-60
2023/11/23 03:32:30;;;;;;;0.35;0.35;;;4.20;99.90;;;;;;4425484;32;20101;-60
2023/11/23 03:34:56;;;;;;;0.30;0.30;;;4.20;99.90;;;;;;4431435;32;20394;-59
2023/11/23 03:37:21;;;;;;;0.40;0.40;;;4.20;99.90;;;;;;4429821;32;20069;-60
2023/11/23 03:39:46;;;;;;;0.40;0.40;;;4.30;99.90;;;;;;4428505;32;20093;-60
2023/11/23 03:42:12;;;;;;;2.12;1.75;;;4.40;99.90;;;;;;4428412;32;20094;-58
2023/11/23 03:44:37;;;;;;;0.30;0.30;;;4.40;99.90;;;;;;4428940;32;20149;-58
2023/11/23 03:47:03;;;;;;;0.30;0.30;;;4.40;99.90;;;;;;4429434;32;20066;-59
2023/11/23 03:49:29;;;;;;;0.20;0.20;;;4.50;99.90;;;;;;4427683;32;20117;-61
2023/11/23 03:51:54;;;;;;;0.30;0.30;;;4.50;99.90;;;;;;4425674;32;20567;-61
2023/11/23 03:54:19;;;;;;;0.37;0.37;;;4.50;99.90;;;;;;4429675;32;20587;-60
2023/11/23 03:56:46;;;;;;;0.73;0.73;;;4.50;99.90;;;;;;4427693;32;20089;-59
2023/11/23 03:59:13;;;;;;;0.90;0.90;;;4.60;99.90;;;;;;4426783;32;20069;-59
2023/11/23 04:04:06;;;;;;;0.30;0.30;;;4.60;99.90;;;;;;4427182;32;20520;-60
2023/11/23 04:06:31;;;;;;;0.25;0.25;;;4.70;99.90;;;;;;4430500;32;20106;-59
2023/11/23 04:08:57;;;;;;;0.30;0.30;;;4.70;99.90;;;;;;4430306;32;20061;-60
2023/11/23 04:11:23;;;;;;;0.30;0.30;;;4.70;99.90;;;;;;4427003;32;20108;-60
2023/11/23 04:13:48;;;;;;;0.30;0.30;;;4.70;99.90;;;;;;4428988;32;20085;-60
2023/11/23 04:16:14;;;;;;;0.30;0.30;;;4.80;99.90;;;;;;4429929;32;20573;-58
2023/11/23 04:18:41;;;;;;;0.30;0.30;;;4.80;99.90;;;;;;4427420;32;20126;-58
2023/11/23 04:21:07;;;;;;;0.35;0.35;;;4.90;99.90;;;;;;4427503;32;20073;-59
2023/11/23 04:23:32;;;;;;;0.65;0.65;;;5.00;99.90;;;;;;4429363;32;20080;-61
2023/11/23 04:25:58;;;;;;;0.30;0.30;;;5.00;99.90;;;;;;4431885;32;20084;-61
2023/11/23 04:28:23;;;;;;;0.45;0.45;;;4.90;99.90;;;;;;4413397;32;20069;-60
2023/11/23 04:30:48;;;;;;;0.55;0.55;;;5.00;99.90;;;;;;4427855;32;20559;-58
2023/11/23 04:33:14;;;;;;;0.30;0.30;;;5.10;99.90;;;;;;4428718;32;20116;-62
2023/11/23 04:35:39;;;;;;;0.30;0.30;;;5.10;99.90;;;;;;4431005;32;20138;-61
2023/11/23 04:38:05;;;;;;;0.40;0.40;;;5.10;99.90;;;;;;4429353;32;20088;-61
2023/11/23 04:40:30;;;;;;;0.30;0.30;;;5.10;99.90;;;;;;4428322;32;20090;-61
2023/11/23 04:42:56;;;;;;;0.77;0.45;;;5.10;99.90;;;;;;4430727;32;20108;-61
2023/11/23 04:45:22;;;;;;;0.30;0.30;;;5.20;99.90;;;;;;4430116;32;20462;-62
2023/11/23 04:47:47;;;;;;;0.30;0.30;;;5.30;99.90;;;;;;4413870;32;20084;-61
2023/11/23 04:50:13;;;;;;;0.80;0.75;;;5.30;99.90;;;;;;4426867;32;20399;-60
2023/11/23 04:52:39;;;;;;;0.30;0.30;;;5.30;99.90;;;;;;4416255;32;20061;-59
2023/11/23 04:55:05;;;;;;;0.50;0.50;;;5.30;99.90;;;;;;4414454;32;20716;-60
2023/11/23 04:57:30;;;;;;;0.37;0.37;;;5.40;99.90;;;;;;4427149;32;20085;-59
2023/11/23 04:59:57;;;;;;;3.47;1.00;;;5.40;99.90;;;;;;4426265;32;20065;-61
2023/11/23 05:02:23;;;;;;;0.30;0.30;;;5.40;99.90;;;;;;4429589;32;20064;-62
2023/11/23 05:04:50;;;;;;;0.30;0.30;;;5.50;99.90;;;;;;4431120;32;20094;-60
2023/11/23 05:07:16;;;;;;;0.35;0.35;;;5.50;99.90;;;;;;4435255;32;20065;-59
2023/11/23 05:09:42;;;;;;;0.57;0.57;;;5.50;99.90;;;;;;4431776;32;20065;-60
2023/11/23 05:12:09;;;;;;;0.30;0.30;;;5.50;99.90;;;;;;4434917;32;20064;-61
2023/11/23 05:14:34;;;;;;;0.50;0.50;;;5.60;99.90;;;;;;4429112;32;20138;-62
2023/11/23 05:17:00;;;;;;;0.32;0.32;;;5.60;99.90;;;;;;4437501;32;20453;-61
2023/11/23 05:19:25;;;;;;;1.23;0.40;;;5.60;99.90;;;;;;4431579;32;20085;-61
2023/11/23 05:21:51;;;;;;;0.30;0.30;;;5.70;99.90;;;;;;4426281;32;20508;-61
2023/11/23 05:24:16;;;;;;;0.43;0.43;;;5.70;99.90;;;;;;4429704;32;20156;-61
2023/11/23 05:26:42;;;;;;;0.40;0.40;;;5.80;99.90;;;;;;4431373;32;20077;-60
2023/11/23 05:29:07;;;;;;;0.35;0.35;;;5.80;99.90;;;;;;4429131;32;20086;-61
2023/11/23 05:31:33;;;;;;;0.68;0.68;;;5.80;99.90;;;;;;4429620;32;20117;-60
2023/11/23 05:33:58;;;;;;;0.57;0.57;;;5.80;99.90;;;;;;4430093;32;20069;-61
2023/11/23 05:36:24;;;;;;;0.40;0.40;;;5.90;99.90;;;;;;4431180;32;20509;-59
2023/11/23 05:38:49;;;;;;;0.30;0.30;;;6.00;99.90;;;;;;4430213;32;20297;-61
2023/11/23 05:41:15;;;;;;;0.30;0.30;;;6.10;99.90;;;;;;4431342;32;20080;-61
2023/11/23 05:43:41;;;;;;;0.30;0.30;;;6.10;99.90;;;;;;4420851;32;20509;-61
2023/11/23 05:46:07;;;;;;;0.32;0.32;;;6.10;99.90;;;;;;4429887;32;20082;-60
2023/11/23 05:48:32;;;;;;;0.30;0.30;;;6.20;99.90;;;;;;4421838;32;20144;-62
2023/11/23 05:50:58;;;;;;;0.30;0.30;;;6.20;99.90;;;;;;4428455;32;20516;-61
2023/11/23 05:53:23;;;;;;;0.37;0.37;;;6.20;99.90;;;;;;4413956;32;20085;-61
2023/11/23 05:55:49;;;;;;;1.95;1.30;;;6.20;99.90;;;;;;4431082;32;20144;-59
2023/11/23 05:58:14;;;;;;;0.40;0.40;;;6.30;99.90;;;;;;4429115;32;20101;-61
2023/11/23 06:00:41;;;;;;;0.40;0.40;;;6.30;99.90;;;;;;4427837;32;20077;-61
2023/11/23 06:03:07;;;;;;;0.35;0.35;;;6.30;99.90;;;;;;4418600;32;20081;-60
2023/11/23 06:05:32;;;;;;;0.30;0.30;;;6.30;99.90;;;;;;4425840;32;20529;-59
2023/11/23 06:07:58;;;;;;;0.60;0.60;;;6.30;99.90;;;;;;4422266;32;20117;-59
2023/11/23 06:10:24;;;;;;;0.30;0.30;;;6.40;99.90;;;;;;4429264;32;20070;-61
2023/11/23 06:12:49;;;;;;;0.65;0.52;;;6.40;99.90;;;;;;4424318;32;20646;-60
2023/11/23 06:15:15;;;;;;;0.30;0.30;;;6.40;99.90;;;;;;4415203;32;20545;-61
2023/11/23 06:17:40;;;;;;;0.55;0.52;;;6.50;99.90;;;;;;4427756;32;20086;-59
2023/11/23 06:20:08;;;;;;;0.60;0.60;;;6.50;99.90;;;;;;4423439;32;20415;-56
2023/11/23 06:22:34;;;;;;;0.20;0.20;;;6.50;99.90;;;;;;4420849;32;20505;-60
2023/11/23 06:24:59;;;;;;;0.30;0.30;;;6.60;99.90;;;;;;4416119;32;20156;-60
2023/11/23 06:27:26;;;;;;;0.45;0.45;;;6.50;99.90;;;;;;4407817;32;20241;-60
2023/11/23 06:29:52;;;;;;;0.30;0.30;;;6.60;99.90;;;;;;4417921;32;20643;-61
2023/11/23 06:32:18;;;;;;;2.75;1.45;;;6.60;99.90;;;;;;4419556;32;20089;-60
2023/11/23 06:34:43;;;;;;;0.30;0.30;;;6.60;99.90;;;;;;4416154;32;20093;-61
2023/11/23 06:37:09;;;;;;;2.58;0.93;;;6.60;99.90;;;;;;4422522;32;20509;-61
2023/11/23 06:39:36;;;;;;;0.30;0.30;;;6.60;99.90;;;;;;4417427;32;20072;-60
2023/11/23 06:42:02;;;;;;;0.40;0.40;;;6.60;99.90;;;;;;4408100;32;20471;-61
2023/11/23 06:44:28;;;;;;;0.40;0.40;;;6.60;99.90;;;;;;4416711;32;20066;-58
2023/11/23 06:46:53;;;;;;;0.40;0.40;;;6.60;99.90;;;;;;4419177;32;20426;-61
2023/11/23 06:49:19;;;;;;;0.30;0.30;;;6.60;99.90;;;;;;4411131;32;20081;-60
2023/11/23 06:51:45;;;;;;;0.30;0.30;;;6.50;99.90;;;;;;4406825;32;20101;-63
2023/11/23 06:54:10;;;;;;;0.30;0.30;;;6.50;99.90;;;;;;4399717;32;20077;-63
2023/11/23 06:56:36;;;;;;;0.52;0.52;;;6.60;99.90;;;;;;4404238;32;21219;-60
2023/11/23 06:59:02;;;;;;;1.17;0.82;;;6.60;99.90;;;;;;4397977;32;20873;-60
2023/11/23 07:01:27;;;;;;;0.20;0.20;;;6.60;99.90;;;;;;4386244;32;20650;-59
2023/11/23 07:03:53;;;;;;;1.33;0.90;;;6.60;99.90;;;;;;4396234;32;20081;-59
2023/11/23 07:06:23;;;;;;;2.72;0.62;;;6.60;99.90;;;;;;4399929;32;20098;-60
2023/11/23 07:08:49;;;;;;;0.85;0.43;;;6.60;99.90;;;;;;4406269;32;20158;-56
2023/11/23 07:11:18;;;;;;;0.40;0.40;;;6.60;99.90;;;;;;4397990;32;20104;-60
2023/11/23 07:13:44;;;;;;;0.85;0.65;;;6.60;99.90;;;;;;4402547;32;22284;-61
2023/11/23 07:16:11;;;;;;;0.30;0.30;;;6.70;99.90;;;;;;4387603;32;20097;-61
2023/11/23 07:18:37;;;;;;;4.37;2.05;;;6.70;99.90;;;;;;4403206;32;20200;-61
2023/11/23 07:21:02;;;;;;;0.30;0.30;;;6.70;99.90;;;;;;4403179;32;20433;-62
2023/11/23 07:23:28;;;;;;;0.47;0.47;;;6.70;99.90;;;;;;4406272;32;20089;-61
2023/11/23 07:25:53;;;;;;;0.28;0.28;;;6.70;99.90;;;;;;4403340;32;20080;-59
2023/11/23 07:28:25;;;;;;;0.40;0.40;;;6.70;99.90;;;;;;4394050;32;20069;-60
2023/11/23 07:30:51;;;;;;;0.40;0.40;;;6.70;99.90;;;;;;4374926;32;21569;-60
2023/11/23 07:33:17;;;;;;;1.85;1.10;;;6.70;99.90;;;;;;4380366;32;20920;-61
2023/11/23 07:35:46;;;;;;;1.42;0.85;;;6.70;99.90;;;;;;4399617;32;20684;-59
2023/11/23 07:38:12;;;;;;;0.45;0.45;;;6.60;99.90;;;;;;4400179;32;20150;-60
2023/11/23 07:40:38;;;;;;;0.32;0.32;;;6.60;99.90;;;;;;4380371;32;20706;-60
2023/11/23 07:43:05;;;;;;;0.40;0.40;;;6.60;99.90;;;;;;4397350;32;20089;-61
2023/11/23 07:45:31;;;;;;;0.37;0.37;;;6.60;99.90;;;;;;4380992;32;20100;-61
2023/11/23 07:47:56;;;;;;;0.40;0.40;;;6.60;99.90;;;;;;4398194;32;20076;-60
2023/11/23 07:50:22;;;;;;;0.75;0.73;;;6.60;99.90;;;;;;4395695;32;21695;-61
2023/11/23 07:52:48;;;;;;;0.80;0.60;;;6.50;99.90;;;;;;4402942;32;20097;-59
2023/11/23 07:55:15;;;;;;;0.37;0.37;;;6.50;99.90;;;;;;4376732;32;20094;-59
2023/11/23 07:57:43;;;;;;;0.40;0.40;;;6.60;99.90;;;;;;4388002;32;20700;-61
2023/11/23 08:02:35;;;;;;;1.33;0.60;;;6.60;99.90;;;;;;4397702;32;20206;-62
2023/11/23 08:05:00;;;;;;;7.35;0.82;;;6.60;99.90;;;;;;4397404;32;22436;-60
2023/11/23 08:07:26;;;;;;;0.28;0.28;;;6.70;99.90;;;;;;4394461;32;20068;-61
2023/11/23 08:09:52;;;;;;;1.87;0.82;;;6.80;99.90;;;;;;4396694;32;20088;-60
2023/11/23 08:12:18;;;;;;;1.27;0.75;;;6.80;99.90;;;;;;4390767;32;20115;-61
2023/11/23 08:14:44;;;;;;;0.40;0.40;;;6.80;99.90;;;;;;4398481;32;20696;-61
2023/11/23 08:17:11;;;;;;;0.32;0.32;;;6.80;99.90;;;;;;4397139;32;20073;-59
2023/11/23 08:19:37;;;;;;;0.50;0.50;;;6.80;99.90;;;;;;4383670;32;20212;-60
2023/11/23 08:22:07;;;;;;;0.60;0.60;;;6.80;99.90;;;;;;4395831;32;20152;-61
2023/11/23 08:24:32;;;;;;;0.73;0.73;;;6.80;99.90;;;;;;4409592;32;20089;-60
2023/11/23 08:26:58;;;;;;;0.50;0.50;;;6.80;99.90;;;;;;4386576;32;20454;-61
2023/11/23 08:29:23;;;;;;;0.50;0.50;;;6.80;99.90;;;;;;4410533;32;20233;-61
2023/11/23 08:31:51;;;;;;;1.08;0.62;;;6.80;99.90;;;;;;4382696;32;20436;-61
2023/11/23 08:34:16;;;;;;;0.50;0.50;;;6.90;99.90;;;;;;4407033;32;20727;-60
2023/11/23 08:36:42;;;;;;;3.10;0.95;;;6.90;99.90;;;;;;4408272;32;20085;-58
2023/11/23 08:39:11;;;;;;;0.30;0.30;;;7.00;99.90;;;;;;4405206;32;20607;-62
2023/11/23 08:41:38;;;;;;;0.57;0.57;;;7.10;99.90;;;;;;4379123;32;20503;-61
2023/11/23 08:44:05;;;;;;;0.52;0.52;;;7.10;99.90;;;;;;4391089;32;20199;-61
2023/11/23 08:46:33;;;;;;;0.22;0.22;;;7.20;99.90;;;;;;4409724;32;20560;-61
2023/11/23 08:49:00;;;;;;;0.40;0.40;;;7.30;99.90;;;;;;4382205;32;20171;-60
2023/11/23 08:51:25;;;;;;;1.90;0.52;;;7.30;99.90;;;;;;4397217;32;20093;-59
2023/11/23 08:53:51;;;;;;;0.35;0.35;;;7.30;99.90;;;;;;4398803;32;20259;-62
2023/11/23 08:56:16;;;;;;;0.32;0.32;;;7.30;99.90;;;;;;4405849;32;20150;-58
2023/11/23 08:58:42;;;;;;;0.65;0.60;;;7.30;99.90;;;;;;4378293;32;20180;-61
2023/11/23 09:01:07;;;;;;;0.50;0.50;;;7.30;99.90;;;;;;4396174;32;20091;-60
2023/11/23 09:03:33;;;;;;;0.25;0.25;;;7.40;99.90;;;;;;4400208;32;20553;-60
2023/11/23 09:05:59;;;;;;;0.40;0.40;;;7.40;99.90;;;;;;4391431;32;20966;-61
2023/11/23 09:08:25;;;;;;;0.43;0.43;;;7.40;99.90;;;;;;4397362;32;20170;-59
2023/11/23 09:10:52;;;;;;;0.50;0.50;;;7.40;99.90;;;;;;4401626;32;20069;-61
2023/11/23 09:13:18;;;;;;;0.60;0.60;;;7.40;99.90;;;;;;4406028;32;20096;-59
2023/11/23 09:15:44;;;;;;;1.17;0.57;;;7.40;99.90;;;;;;4391650;32;20118;-61
2023/11/23 09:18:10;;;;;;;0.70;0.45;;;7.40;99.90;;;;;;4392981;32;20545;-62
2023/11/23 09:20:36;;;;;;;0.40;0.40;;;7.40;99.90;;;;;;4403845;32;20181;-58
2023/11/23 09:23:02;;;;;;;1.67;1.55;;;7.40;99.90;;;;;;4400277;32;20760;-58
2023/11/23 09:25:29;;;;;;;0.40;0.40;;;7.50;99.90;;;;;;4388238;32;21018;-57
2023/11/23 09:27:55;;;;;;;0.35;0.32;;;7.50;99.90;;;;;;4402162;32;20163;-59
2023/11/23 09:30:21;;;;;;;0.50;0.50;;;7.50;99.90;;;;;;4399937;32;20737;-60
2023/11/23 09:32:46;;;;;;;0.60;0.60;;;7.50;99.90;;;;;;4389511;32;20113;-57
2023/11/23 09:35:12;;;;;;;1.65;0.73;;;7.50;99.90;;;;;;4402611;32;20410;-59
2023/11/23 09:37:37;;;;;;;1.73;1.00;;;7.50;99.90;;;;;;4386683;32;20510;-61
2023/11/23 09:40:07;;;;;;;0.30;0.30;;;7.50;99.90;;;;;;4379487;32;20093;-59
2023/11/23 09:42:37;;;;;;;0.40;0.40;;;7.40;99.90;;;;;;4382574;32;21314;-60
2023/11/23 09:45:06;;;;;;;0.30;0.30;;;7.40;99.90;;;;;;4377640;32;20093;-60
2023/11/23 09:47:34;;;;;;;0.25;0.25;;;7.40;99.90;;;;;;4395701;32;20108;-60
2023/11/23 09:50:00;;;;;;;0.68;0.68;;;7.40;99.90;;;;;;4384888;32;20113;-60
2023/11/23 09:52:28;;;;;;;1.35;0.55;;;7.40;99.90;;;;;;4393634;32;20149;-60
2023/11/23 09:54:57;;;;;;;0.40;0.40;;;7.50;99.90;;;;;;4380522;32;20104;-60
2023/11/23 09:57:23;;;;;;;6.40;1.05;;;7.50;99.90;;;;;;4400623;32;20322;-61
2023/11/23 09:59:49;;;;;;;0.50;0.50;;;7.50;99.90;;;;;;4394788;32;20076;-59
2023/11/23 10:02:20;;;;;;;0.40;0.40;;;7.50;99.90;;;;;;4398185;32;20128;-60
2023/11/23 10:04:47;;;;;;;1.85;0.55;;;7.50;99.90;;;;;;4378394;32;20151;-60
2023/11/23 10:07:17;;;;;;;1.35;0.98;;;7.50;99.90;;;;;;4391098;32;20135;-60
2023/11/23 10:09:43;;;;;;;0.77;0.70;;;7.50;99.90;;;;;;4382102;32;20335;-61
2023/11/23 10:12:09;;;;;;;0.52;0.52;;;7.50;99.90;;;;;;4397946;32;20191;-62
2023/11/23 10:14:34;;;;;;;0.65;0.50;;;7.50;99.90;;;;;;4391735;32;20140;-60
2023/11/23 10:17:00;;;;;;;0.35;0.35;;;7.60;99.90;;;;;;4388151;32;20093;-61
2023/11/23 10:19:25;;;;;;;2.28;0.60;;;7.60;99.90;;;;;;4402383;32;20069;-61
2023/11/23 10:21:55;;;;;;;0.47;0.40;;;7.60;99.90;;;;;;4402050;32;20082;-61
2023/11/23 10:24:23;;;;;;;0.40;0.40;;;7.70;99.90;;;;;;4379533;32;20128;-60
2023/11/23 10:26:50;;;;;;;0.40;0.40;;;7.70;99.90;;;;;;4384384;32;20093;-62
2023/11/23 10:29:16;;;;;;;0.65;0.55;;;7.70;99.90;;;;;;4387804;32;20746;-62
2023/11/23 10:31:41;;;;;;;0.70;0.55;;;7.70;99.90;;;;;;4385218;32;20544;-60
2023/11/23 10:34:08;;;;;;;0.30;0.30;;;7.70;99.90;;;;;;4391449;32;20085;-61
2023/11/23 10:36:39;;;;;;;0.50;0.50;;;7.70;99.90;;;;;;4396103;32;20199;-61
2023/11/23 10:39:10;;;;;;;0.20;0.20;;;7.80;99.90;;;;;;4399506;32;20120;-61
2023/11/23 10:41:38;;;;;;;0.73;0.73;;;7.80;99.90;;;;;;4398039;32;20093;-61
2023/11/23 10:44:04;;;;;;;1.87;1.17;;;7.80;99.90;;;;;;4369912;32;20465;-59
2023/11/23 10:46:30;;;;;;;0.50;0.50;;;7.80;99.90;;;;;;4396328;32;20126;-60
2023/11/23 10:48:56;;;;;;;0.47;0.47;;;7.80;99.90;;;;;;4400167;32;20109;-60
2023/11/23 10:51:25;;;;;;;0.50;0.50;;;7.80;99.90;;;;;;4394680;32;21298;-62
2023/11/23 10:53:51;;;;;;;0.30;0.30;;;7.80;99.90;;;;;;4382906;32;20098;-60
2023/11/23 10:56:20;;;;;;;0.65;0.65;;;7.80;99.90;;;;;;4397478;32;20164;-61
2023/11/23 10:58:49;;;;;;;0.40;0.40;;;7.80;99.90;;;;;;4389309;32;20184;-61
2023/11/23 11:01:21;;;;;;;0.50;0.50;;;7.80;99.90;;;;;;4381556;32;21055;-58
2023/11/23 11:03:47;;;;;;;0.25;0.25;;;7.80;99.90;;;;;;4384381;32;20101;-60
2023/11/23 11:06:13;;;;;;;0.37;0.37;;;7.80;99.90;;;;;;4380303;32;20109;-61
2023/11/23 11:08:44;;;;;;;0.55;0.50;;;7.90;99.90;;;;;;4385961;32;20090;-59
2023/11/23 11:11:12;;;;;;;0.30;0.30;;;7.90;99.90;;;;;;4387803;32;20143;-60
2023/11/23 11:13:43;;;;;;;0.30;0.30;;;7.90;99.90;;;;;;4391996;32;20168;-61
2023/11/23 11:16:11;;;;;;;0.80;0.45;;;8.00;99.90;;;;;;4389182;32;20949;-61
2023/11/23 11:18:38;;;;;;;5.60;1.02;;;8.00;99.90;;;;;;4379867;32;20089;-60
2023/11/23 11:21:13;;;;;;;0.50;0.50;;;8.00;99.90;;;;;;4403920;32;20437;-58
2023/11/23 11:23:46;;;;;;;0.50;0.50;;;8.10;99.90;;;;;;4414395;32;20084;-57
2023/11/23 11:26:16;;;;;;;0.32;0.32;;;8.10;99.90;;;;;;4410637;32;20109;-59
2023/11/23 11:28:43;;;;;;;0.45;0.45;;;8.10;99.90;;;;;;4411276;32;20597;-60
2023/11/23 11:31:13;;;;;;;0.45;0.45;;;8.10;99.90;;;;;;4408575;32;20093;-61
2023/11/23 11:33:39;;;;;;;0.50;0.50;;;8.10;99.90;;;;;;4389399;32;22255;-60
2023/11/23 11:36:07;;;;;;;2.75;1.87;;;8.20;99.90;;;;;;4388014;32;20171;-60
2023/11/23 11:38:35;;;;;;;0.73;0.73;;;8.20;99.90;;;;;;4405024;32;20093;-59
2023/11/23 11:41:03;;;;;;;0.40;0.40;;;8.20;99.90;;;;;;4399539;32;20073;-60
2023/11/23 11:43:32;;;;;;;0.57;0.57;;;8.20;99.90;;;;;;4412960;32;20605;-60
2023/11/23 11:45:57;;;;;;;0.35;0.35;;;8.20;99.90;;;;;;4411499;32;20533;-61
2023/11/23 11:48:23;;;;;;;3.75;0.95;;;8.20;99.90;;;;;;4411623;32;20179;-60
2023/11/23 11:50:56;;;;;;;0.43;0.43;;;8.20;99.90;;;;;;4411974;32;98260;-57
2023/11/23 11:53:22;;;;;;;0.20;0.20;;;8.30;99.90;;;;;;4410154;32;20438;-61
2023/11/23 11:55:49;;;;;;;0.20;0.20;;;8.30;99.90;;;;;;4398473;32;21165;-56
2023/11/23 11:58:15;;;;;;;0.40;0.40;;;8.30;99.90;;;;;;4404707;32;20080;-59
2023/11/23 12:00:44;;;;;;;0.20;0.20;;;8.30;99.90;;;;;;4395357;32;20100;-62
2023/11/23 12:03:09;;;;;;;0.30;0.30;;;8.30;99.90;;;;;;4385489;32;20089;-61
2023/11/23 12:05:39;;;;;;;0.28;0.28;;;8.30;99.90;;;;;;4404075;32;20101;-62
2023/11/23 12:08:05;;;;;;;0.35;0.35;;;8.30;99.90;;;;;;4403826;32;20379;-60
2023/11/23 12:10:45;;;;;;;1.20;0.60;;;8.40;99.90;;;;;;4406296;32;20562;-59
2023/11/23 12:13:18;;;;;;;;;;;8.40;99.90;;;;;;4406811;32;20667;-61
2023/11/23 12:15:44;;;;;;;0.40;0.40;;;8.40;99.90;;;;;;4408809;32;20373;-61
2023/11/23 12:18:13;;;;;;;0.30;0.30;;;8.40;99.90;;;;;;4406228;32;20065;-60
2023/11/23 12:20:39;;;;;;;0.30;0.30;;;8.40;99.90;;;;;;4401643;32;20085;-62
2023/11/23 12:23:05;;;;;;;0.62;0.52;;;8.50;99.90;;;;;;4409738;32;20081;-60
2023/11/23 12:25:33;;;;;;;0.50;0.50;;;8.50;99.90;;;;;;4393625;32;20085;-62
2023/11/23 12:27:59;;;;;;;0.20;0.20;;;8.50;99.90;;;;;;4383154;32;20193;-60
2023/11/23 12:30:25;;;;;;;0.37;0.37;;;8.60;99.90;;;;;;4402927;32;20438;-62
2023/11/23 12:32:51;;;;;;;0.40;0.40;;;8.60;99.90;;;;;;4408281;32;20110;-59
2023/11/23 12:35:16;;;;;;;0.75;0.70;;;8.70;99.90;;;;;;4412432;32;20081;-59
2023/11/23 12:37:42;;;;;;;1.00;0.50;;;8.80;99.90;;;;;;4413071;32;20185;-61
2023/11/23 12:40:11;;;;;;;0.20;0.20;;;8.80;99.90;;;;;;4413113;32;20093;-62
2023/11/23 12:42:38;;;;;;;0.73;0.52;;;8.90;99.90;;;;;;4415581;32;20152;-61
2023/11/23 12:45:08;;;;;;;1.45;0.70;;;9.00;99.90;;;;;;4395882;32;20442;-58
2023/11/23 12:47:36;;;;;;;0.30;0.30;;;9.10;99.90;;;;;;4418058;32;20085;-60
2023/11/23 12:50:04;;;;;;;0.65;0.50;;;9.20;99.90;;;;;;4405442;32;20093;-63
2023/11/23 12:52:32;;;;;;;0.35;0.35;;;9.30;99.90;;;;;;4416186;32;20077;-59
2023/11/23 12:55:00;;;;;;;0.50;0.50;;;9.50;99.90;;;;;;4411687;32;20879;-60
2023/11/23 12:57:26;;;;;;;0.47;0.47;;;9.50;99.90;;;;;;4413175;32;20101;-62